createdAt,value
2023-02-28T00:00:54.444Z,12.52
2023-02-28T00:03:20.880Z,10.05
2023-02-28T00:05:47.382Z,10.50
2023-02-28T00:08:14.206Z,9.77
2023-02-28T00:10:40.583Z,9.15
2023-02-28T00:13:07.418Z,8.32
2023-02-28T00:15:34.578Z,8.23
2023-02-28T00:18:01.077Z,9.75
2023-02-28T00:20:27.765Z,8.50
2023-02-28T00:22:54.886Z,8.57
2023-02-28T00:25:25.850Z,10.98
2023-02-28T00:27:52.498Z,8.40
2023-02-28T00:30:23.789Z,10.18
2023-02-28T00:32:51.510Z,10.23
2023-02-28T00:35:18.269Z,10.25
2023-02-28T00:37:44.977Z,8.65
2023-02-28T00:40:13.126Z,10.80
2023-02-28T00:42:40.466Z,8.48
2023-02-28T00:45:07.882Z,8.40
2023-02-28T00:47:34.277Z,12.40
2023-02-28T00:50:01.259Z,11.45
2023-02-28T00:52:27.912Z,11.20
2023-02-28T00:54:54.597Z,10.88
2023-02-28T00:57:20.989Z,7.25
2023-02-28T00:59:47.419Z,8.10
2023-02-28T01:02:14.051Z,10.30
2023-02-28T01:04:40.619Z,11.48
2023-02-28T01:07:07.452Z,6.95
2023-02-28T01:09:33.911Z,9.57
2023-02-28T01:12:00.355Z,10.40
2023-02-28T01:14:26.738Z,9.13
2023-02-28T01:16:53.122Z,11.15
2023-02-28T01:19:19.613Z,10.23
2023-02-28T01:21:46.012Z,6.53
2023-02-28T01:24:13.572Z,7.97
2023-02-28T01:26:39.947Z,7.45
2023-02-28T01:29:06.252Z,8.43
2023-02-28T01:31:32.973Z,10.07
2023-02-28T01:33:59.892Z,7.07
2023-02-28T01:36:26.578Z,7.97
2023-02-28T01:38:53.443Z,9.05
2023-02-28T01:41:26.343Z,7.40
2023-02-28T01:43:57.248Z,9.02
2023-02-28T01:46:24.349Z,7.45
2023-02-28T01:49:06.433Z,8.10
2023-02-28T01:51:46.524Z,9.20
2023-02-28T01:54:17.672Z,12.57
2023-02-28T01:56:56.008Z,10.52
2023-02-28T01:59:27.915Z,9.77
2023-02-28T02:01:55.229Z,8.73
2023-02-28T02:04:26.973Z,7.80
2023-02-28T02:06:53.656Z,8.48
2023-02-28T02:09:20.058Z,7.88
2023-02-28T02:11:47.539Z,8.15
2023-02-28T02:14:41.794Z,7.28
2023-02-28T02:17:36.800Z,9.60
2023-02-28T02:22:52.176Z,6.45
2023-02-28T02:25:49.500Z,8.93
2023-02-28T02:28:30.041Z,8.88
2023-02-28T02:31:18.000Z,8.82
2023-02-28T02:34:21.509Z,14.15
2023-02-28T02:37:17.213Z,8.82
2023-02-28T02:39:58.055Z,9.25
2023-02-28T02:42:45.154Z,9.43
2023-02-28T02:45:19.286Z,10.02
2023-02-28T02:47:46.326Z,9.40
2023-02-28T02:50:30.009Z,12.75
2023-02-28T02:53:01.518Z,8.32
2023-02-28T02:55:28.891Z,10.45
2023-02-28T02:58:01.023Z,9.70
2023-02-28T03:00:34.148Z,8.05
2023-02-28T03:03:02.309Z,12.05
2023-02-28T03:05:36.716Z,9.23
2023-02-28T03:08:08.690Z,8.23
2023-02-28T03:10:35.016Z,19.73
2023-02-28T03:13:35.997Z,9.73
2023-02-28T03:16:09.615Z,10.75
2023-02-28T03:18:58.943Z,15.05
2023-02-28T03:21:48.106Z,9.68
2023-02-28T03:24:28.226Z,7.82
2023-02-28T03:27:06.157Z,11.15
2023-02-28T03:29:38.820Z,7.72
2023-02-28T03:32:15.526Z,11.98
2023-02-28T03:34:49.880Z,8.27
2023-02-28T03:37:22.374Z,10.60
2023-02-28T03:39:59.123Z,8.68
2023-02-28T03:42:30.514Z,14.77
2023-02-28T03:45:03.595Z,9.45
2023-02-28T03:47:56.188Z,11.85
2023-02-28T03:50:28.172Z,13.45
2023-02-28T03:53:15.008Z,10.68
2023-02-28T03:55:50.159Z,9.15
2023-02-28T03:59:10.441Z,8.68
2023-02-28T04:01:42.442Z,8.30
2023-02-28T04:04:13.215Z,9.05
2023-02-28T04:06:40.951Z,7.90
2023-02-28T04:11:46.367Z,9.30
2023-02-28T04:14:13.177Z,9.57
2023-02-28T04:16:41.970Z,11.10
2023-02-28T04:19:09.967Z,8.43
2023-02-28T04:21:42.176Z,8.75
2023-02-28T04:24:14.916Z,7.15
2023-02-28T04:26:44.634Z,6.40
2023-02-28T04:29:12.752Z,8.52
2023-02-28T04:34:05.874Z,6.78
2023-02-28T04:36:32.731Z,7.18
2023-02-28T04:38:59.186Z,7.50
2023-02-28T04:41:25.626Z,9.30
2023-02-28T04:43:53.661Z,8.52
2023-02-28T04:48:47.259Z,10.63
2023-02-28T04:51:15.912Z,7.47
2023-02-28T04:53:43.744Z,7.50
2023-02-28T04:56:13.864Z,6.63
2023-02-28T04:58:40.685Z,7.15
2023-02-28T05:01:25.471Z,10.18
2023-02-28T05:03:53.584Z,9.10
2023-02-28T05:08:48.142Z,6.38
2023-02-28T05:11:20.681Z,8.35
2023-02-28T05:13:48.083Z,7.10
2023-02-28T05:16:15.272Z,6.57
2023-02-28T05:18:41.987Z,6.82
2023-02-28T05:21:25.377Z,7.15
2023-02-28T05:23:52.359Z,7.43
2023-02-28T05:26:19.217Z,7.55
2023-02-28T05:28:45.596Z,7.45
2023-02-28T05:31:12.299Z,6.00
2023-02-28T05:33:38.663Z,8.43
2023-02-28T05:36:05.511Z,9.63
2023-02-28T05:38:31.936Z,6.38
2023-02-28T05:40:58.257Z,6.90
2023-02-28T05:43:24.846Z,7.68
2023-02-28T05:45:51.238Z,5.70
2023-02-28T05:48:19.049Z,7.78
2023-02-28T05:50:47.024Z,6.75
2023-02-28T05:53:13.854Z,6.70
2023-02-28T05:55:42.058Z,7.50
2023-02-28T05:58:08.469Z,7.00
2023-02-28T06:00:34.893Z,7.60
2023-02-28T06:03:03.063Z,6.85
2023-02-28T06:05:29.606Z,7.35
2023-02-28T06:07:55.953Z,7.13
2023-02-28T06:10:22.326Z,8.20
2023-02-28T06:12:48.714Z,8.80
2023-02-28T06:15:15.897Z,7.05
2023-02-28T06:17:44.200Z,7.35
2023-02-28T06:20:13.769Z,7.40
2023-02-28T06:22:40.815Z,8.93
2023-02-28T06:25:07.958Z,7.43
2023-02-28T06:27:34.972Z,7.28
2023-02-28T06:30:01.513Z,8.90
2023-02-28T06:32:28.002Z,10.10
2023-02-28T06:34:56.530Z,8.60
2023-02-28T06:37:22.915Z,7.13
2023-02-28T06:39:49.438Z,6.57
2023-02-28T06:42:15.927Z,7.80
2023-02-28T06:44:43.861Z,9.95
2023-02-28T06:47:10.309Z,7.80
2023-02-28T06:49:37.110Z,8.75
2023-02-28T06:52:03.880Z,7.97
2023-02-28T06:54:30.333Z,9.65
2023-02-28T06:56:58.995Z,11.52
2023-02-28T06:59:25.470Z,8.05
2023-02-28T07:01:51.870Z,11.57
2023-02-28T07:04:18.376Z,8.15
2023-02-28T07:06:45.023Z,8.93
2023-02-28T07:09:11.766Z,10.82
2023-02-28T07:11:38.337Z,9.00
2023-02-28T07:14:04.953Z,6.97
2023-02-28T07:16:31.411Z,9.95
2023-02-28T07:18:57.823Z,8.60
2023-02-28T07:21:24.324Z,9.02
2023-02-28T07:23:51.022Z,8.73
2023-02-28T07:26:19.168Z,8.20
2023-02-28T07:31:16.633Z,9.43
2023-02-28T07:33:43.344Z,10.68
2023-02-28T07:36:16.375Z,8.43
2023-02-28T07:38:46.356Z,10.90
2023-02-28T07:41:14.755Z,10.60
2023-02-28T07:43:41.100Z,9.45
2023-02-28T07:46:10.416Z,11.48
2023-02-28T07:48:36.998Z,9.63
2023-02-28T07:51:03.935Z,12.02
2023-02-28T07:53:31.194Z,8.32
2023-02-28T07:55:59.138Z,8.80
2023-02-28T07:58:26.865Z,9.95
2023-02-28T08:00:53.329Z,7.63
2023-02-28T08:03:22.007Z,13.15
2023-02-28T08:05:49.290Z,9.80
2023-02-28T08:08:17.109Z,9.55
2023-02-28T08:10:46.297Z,9.45
2023-02-28T08:13:12.744Z,11.52
2023-02-28T08:15:39.219Z,10.27
2023-02-28T08:18:05.762Z,11.18
2023-02-28T08:20:32.148Z,11.07
2023-02-28T08:22:58.569Z,9.98
2023-02-28T08:25:25.127Z,9.38
2023-02-28T08:27:53.906Z,9.50
2023-02-28T08:30:20.980Z,8.95
2023-02-28T08:32:47.416Z,8.30
2023-02-28T08:35:14.115Z,9.88
2023-02-28T08:37:40.542Z,8.98
2023-02-28T08:40:07.788Z,7.82
2023-02-28T08:42:34.349Z,9.52
2023-02-28T08:45:00.789Z,9.25
2023-02-28T08:47:27.542Z,7.45
2023-02-28T08:49:53.982Z,8.55
2023-02-28T08:52:20.345Z,7.72
2023-02-28T08:54:46.784Z,7.68
2023-02-28T08:57:13.329Z,13.95
2023-02-28T08:59:39.737Z,10.07
2023-02-28T09:02:06.111Z,7.25
2023-02-28T09:04:32.506Z,6.75
2023-02-28T09:06:58.933Z,6.60
2023-02-28T09:09:25.265Z,7.55
2023-02-28T09:11:51.635Z,7.60
2023-02-28T09:14:18.531Z,7.97
2023-02-28T09:16:45.077Z,9.80
2023-02-28T09:19:13.131Z,7.50
2023-02-28T09:21:39.558Z,7.68
2023-02-28T09:24:06.373Z,6.30
2023-02-28T09:26:39.060Z,5.80
2023-02-28T09:29:17.664Z,6.82
2023-02-28T09:31:44.659Z,4.38
2023-02-28T09:34:11.146Z,6.05
2023-02-28T09:36:45.576Z,4.65
2023-02-28T09:39:17.449Z,7.38
2023-02-28T09:41:50.924Z,4.78
2023-02-28T09:44:27.492Z,5.20
2023-02-28T09:47:14.009Z,4.50
2023-02-28T09:49:47.981Z,6.25
2023-02-28T09:52:24.907Z,4.55
2023-02-28T09:54:51.385Z,4.60
2023-02-28T09:57:30.746Z,5.15
2023-02-28T10:00:14.050Z,4.53
2023-02-28T10:03:18.260Z,5.90
2023-02-28T10:05:54.422Z,4.28
2023-02-28T10:08:27.793Z,4.80
2023-02-28T10:11:05.230Z,5.40
2023-02-28T10:13:48.168Z,4.35
2023-02-28T10:16:32.265Z,5.32
2023-02-28T10:19:05.933Z,9.05
2023-02-28T10:21:41.210Z,6.55
2023-02-28T10:24:24.069Z,4.22
2023-02-28T10:26:56.980Z,4.80
2023-02-28T10:29:23.666Z,5.72
2023-02-28T10:31:50.236Z,4.60
2023-02-28T10:34:16.627Z,5.03
2023-02-28T10:36:44.728Z,4.55
2023-02-28T10:39:39.427Z,4.07
2023-02-28T10:42:18.992Z,6.60
2023-02-28T10:44:45.406Z,4.28
2023-02-28T10:47:20.345Z,4.88
2023-02-28T10:49:53.294Z,4.25
2023-02-28T10:52:41.692Z,5.63
2023-02-28T10:55:26.619Z,5.30
2023-02-28T10:57:53.630Z,5.13
2023-02-28T11:00:26.318Z,4.63
2023-02-28T11:02:52.964Z,4.63
2023-02-28T11:05:31.939Z,4.93
2023-02-28T11:08:23.004Z,9.02
2023-02-28T11:10:58.686Z,6.75
2023-02-28T11:13:35.453Z,4.40
2023-02-28T11:16:06.943Z,5.38
2023-02-28T11:18:56.003Z,4.28
2023-02-28T11:21:31.009Z,4.80
2023-02-28T11:24:04.964Z,6.07
2023-02-28T11:26:40.762Z,5.65
2023-02-28T11:29:17.066Z,4.53
2023-02-28T11:31:43.903Z,4.75
2023-02-28T11:34:30.577Z,5.28
2023-02-28T11:36:58.983Z,6.05
2023-02-28T11:39:26.541Z,5.00
2023-02-28T11:42:13.864Z,4.53
2023-02-28T11:45:16.182Z,5.32
2023-02-28T11:47:53.043Z,4.07
2023-02-28T11:50:38.314Z,5.65
2023-02-28T11:53:19.753Z,5.10
2023-02-28T11:55:52.872Z,5.40
2023-02-28T11:58:25.123Z,4.28
2023-02-28T12:01:15.351Z,4.90
2023-02-28T12:04:07.251Z,6.70
2023-02-28T12:07:01.052Z,5.70
2023-02-28T12:09:49.228Z,5.50
2023-02-28T12:12:39.938Z,5.15
2023-02-28T12:15:26.811Z,3.92
2023-02-28T12:18:29.230Z,5.13
2023-02-28T12:21:22.990Z,4.90
2023-02-28T12:24:03.150Z,3.85
2023-02-28T12:26:51.753Z,5.00
2023-02-28T12:29:24.998Z,5.35
2023-02-28T12:32:10.766Z,4.70
2023-02-28T12:34:48.643Z,5.70
2023-02-28T12:37:22.062Z,5.32
2023-02-28T12:39:53.578Z,5.50
2023-02-28T12:42:31.211Z,5.80
2023-02-28T12:45:05.972Z,6.50
2023-02-28T12:47:32.362Z,4.93
2023-02-28T12:50:07.735Z,5.60
2023-02-28T12:52:36.882Z,6.20
2023-02-28T12:55:06.437Z,5.43
2023-02-28T12:57:44.106Z,5.22
2023-02-28T13:00:18.462Z,5.45
2023-02-28T13:03:00.700Z,5.18
2023-02-28T13:05:46.883Z,5.00
2023-02-28T13:08:52.527Z,5.32
2023-02-28T13:11:48.095Z,5.10
2023-02-28T13:14:43.516Z,5.35
2023-02-28T13:17:09.904Z,5.43
2023-02-28T13:20:15.852Z,5.10
2023-02-28T13:22:47.348Z,5.70
2023-02-28T13:25:22.774Z,5.25
2023-02-28T13:28:01.667Z,6.40
2023-02-28T13:31:01.451Z,5.68
2023-02-28T13:34:07.225Z,5.85
2023-02-28T13:36:33.936Z,4.93
2023-02-28T13:39:24.154Z,5.70
2023-02-28T13:41:50.613Z,5.88
2023-02-28T13:44:18.500Z,5.03
2023-02-28T13:46:50.880Z,6.20
2023-02-28T13:49:32.500Z,5.03
2023-02-28T13:52:08.409Z,6.28
2023-02-28T13:54:59.990Z,6.63
2023-02-28T13:57:45.932Z,6.43
2023-02-28T14:00:23.714Z,4.93
2023-02-28T14:02:59.884Z,4.90
2023-02-28T14:05:27.831Z,4.72
2023-02-28T14:07:57.852Z,5.30
2023-02-28T14:10:35.288Z,6.47
2023-02-28T14:13:45.759Z,6.00
2023-02-28T14:16:22.026Z,5.80
2023-02-28T14:19:06.570Z,5.13
2023-02-28T14:21:38.794Z,5.40
2023-02-28T14:24:24.090Z,6.45
2023-02-28T14:27:26.042Z,4.70
2023-02-28T14:30:15.226Z,6.75
2023-02-28T14:32:49.032Z,6.75
2023-02-28T14:35:29.419Z,5.82
2023-02-28T14:37:56.144Z,5.40
2023-02-28T14:40:28.622Z,5.35
2023-02-28T14:43:00.716Z,5.13
2023-02-28T14:45:31.552Z,5.57
2023-02-28T14:47:59.689Z,6.97
2023-02-28T14:50:32.755Z,5.22
2023-02-28T14:52:59.848Z,5.30
2023-02-28T14:55:32.345Z,5.63
2023-02-28T14:58:00.882Z,6.85
2023-02-28T15:00:30.242Z,6.68
2023-02-28T15:02:58.116Z,5.10
2023-02-28T15:05:30.738Z,6.50
2023-02-28T15:08:10.806Z,5.70
2023-02-28T15:10:38.045Z,5.20
2023-02-28T15:13:24.128Z,6.45
2023-02-28T15:16:02.382Z,4.70
2023-02-28T15:18:32.439Z,4.82
2023-02-28T15:21:04.543Z,8.10
2023-02-28T15:23:31.951Z,5.78
2023-02-28T15:25:59.008Z,6.50
2023-02-28T15:28:25.808Z,5.18
2023-02-28T15:31:04.134Z,5.70
2023-02-28T15:33:32.988Z,5.65
2023-02-28T15:36:16.294Z,5.85
2023-02-28T15:38:44.585Z,6.90
2023-02-28T15:41:24.491Z,6.03
2023-02-28T15:44:27.732Z,7.90
2023-02-28T15:47:03.674Z,8.90
2023-02-28T15:49:44.862Z,7.47
2023-02-28T15:52:17.352Z,7.00
2023-02-28T15:54:45.167Z,7.13
2023-02-28T15:57:18.545Z,5.95
2023-02-28T15:59:56.436Z,7.53
2023-02-28T16:02:32.363Z,7.25
2023-02-28T16:05:08.287Z,5.60
2023-02-28T16:07:36.695Z,5.95
2023-02-28T16:10:03.503Z,6.18
2023-02-28T16:12:32.558Z,5.60
2023-02-28T16:15:03.732Z,8.75
2023-02-28T16:17:34.579Z,6.78
2023-02-28T16:20:01.080Z,7.80
2023-02-28T16:22:27.433Z,5.80
2023-02-28T16:24:53.872Z,6.78
2023-02-28T16:27:32.133Z,6.25
2023-02-28T16:29:58.584Z,6.57
2023-02-28T16:32:24.988Z,18.17
2023-02-28T16:34:51.461Z,10.43
2023-02-28T16:37:19.299Z,11.23
2023-02-28T16:39:46.496Z,7.55
2023-02-28T16:42:29.103Z,7.95
2023-02-28T16:44:56.340Z,13.93
2023-02-28T16:47:23.366Z,9.63
2023-02-28T16:49:49.761Z,9.50
2023-02-28T16:52:16.394Z,10.10
2023-02-28T16:54:42.792Z,9.85
2023-02-28T16:57:22.358Z,11.32
2023-02-28T16:59:51.561Z,9.95
2023-02-28T17:02:20.384Z,7.53
2023-02-28T17:04:47.085Z,8.20
2023-02-28T17:07:16.929Z,6.95
2023-02-28T17:09:45.710Z,6.57
2023-02-28T17:12:13.091Z,6.53
2023-02-28T17:14:39.506Z,7.32
2023-02-28T17:17:07.116Z,8.90
2023-02-28T17:19:34.966Z,7.25
2023-02-28T17:22:01.568Z,7.15
2023-02-28T17:24:31.209Z,7.20
2023-02-28T17:26:58.540Z,7.70
2023-02-28T17:29:25.365Z,7.57
2023-02-28T17:31:51.960Z,9.23
2023-02-28T17:34:21.405Z,8.25
2023-02-28T17:36:49.407Z,8.63
2023-02-28T17:39:24.808Z,11.68
2023-02-28T17:41:52.735Z,9.30
2023-02-28T17:44:20.008Z,8.50
2023-02-28T17:46:47.587Z,7.55
2023-02-28T17:49:14.538Z,8.90
2023-02-28T17:51:40.994Z,9.15
2023-02-28T17:54:07.386Z,7.53
2023-02-28T17:56:33.809Z,10.30
2023-02-28T17:59:00.546Z,9.00
2023-02-28T18:01:27.656Z,11.10
2023-02-28T18:03:54.823Z,8.90
2023-02-28T18:06:28.561Z,8.13
2023-02-28T18:08:55.812Z,9.43
2023-02-28T18:11:24.274Z,10.00
2023-02-28T18:13:53.227Z,9.77
2023-02-28T18:16:21.801Z,9.57
2023-02-28T18:18:48.827Z,10.05
2023-02-28T18:21:16.501Z,9.07
2023-02-28T18:23:48.286Z,10.70
2023-02-28T18:26:16.457Z,9.82
2023-02-28T18:28:44.537Z,12.13
2023-02-28T18:31:19.426Z,12.07
2023-02-28T18:33:49.564Z,10.32
2023-02-28T18:36:16.338Z,11.68
2023-02-28T18:38:43.690Z,8.40
2023-02-28T18:41:10.202Z,11.15
2023-02-28T18:43:38.556Z,9.82
2023-02-28T18:46:10.277Z,11.27
2023-02-28T18:48:36.851Z,10.73
2023-02-28T18:51:16.253Z,11.75
2023-02-28T18:53:43.718Z,8.50
2023-02-28T18:56:13.295Z,9.48
2023-02-28T18:58:40.203Z,13.30
2023-02-28T19:01:21.290Z,20.30
2023-02-28T19:03:48.925Z,22.92
2023-02-28T19:06:16.605Z,19.95
2023-02-28T19:08:43.046Z,18.63
2023-02-28T19:11:11.816Z,13.90
2023-02-28T19:13:38.720Z,13.90
2023-02-28T19:16:07.321Z,12.68
2023-02-28T19:18:33.957Z,10.93
2023-02-28T19:21:00.645Z,9.48
2023-02-28T19:23:27.722Z,10.95
2023-02-28T19:25:55.768Z,10.85
2023-02-28T19:28:22.601Z,10.80
2023-02-28T19:30:52.837Z,9.80
2023-02-28T19:33:20.232Z,10.52
2023-02-28T19:35:47.417Z,11.73
2023-02-28T19:38:17.115Z,10.52
2023-02-28T19:40:43.778Z,10.75
2023-02-28T19:43:10.500Z,11.52
2023-02-28T19:45:38.033Z,10.93
2023-02-28T19:48:04.817Z,11.60
2023-02-28T19:50:31.756Z,10.07
2023-02-28T19:52:59.991Z,14.95
2023-02-28T19:55:27.074Z,11.70
2023-02-28T19:57:53.400Z,12.45
2023-02-28T20:00:20.118Z,13.15
2023-02-28T20:02:46.629Z,16.30
2023-02-28T20:05:13.014Z,13.40
2023-02-28T20:07:39.417Z,13.00
2023-02-28T20:10:06.356Z,14.75
2023-02-28T20:12:32.848Z,14.93
2023-02-28T20:14:59.823Z,20.67
2023-02-28T20:17:26.427Z,27.13
2023-02-28T20:19:52.767Z,26.35
2023-02-28T20:22:19.170Z,19.52
2023-02-28T20:24:48.465Z,24.58
2023-02-28T20:27:15.536Z,29.48
2023-02-28T20:29:41.937Z,20.35
2023-02-28T20:32:08.386Z,15.35
2023-02-28T20:34:34.790Z,18.85
2023-02-28T20:37:01.172Z,20.08
2023-02-28T20:39:27.724Z,22.75
2023-02-28T20:41:54.114Z,24.27
2023-02-28T20:44:20.599Z,21.92
2023-02-28T20:46:47.006Z,16.13
2023-02-28T20:49:15.714Z,21.58
2023-02-28T20:51:42.367Z,22.65
2023-02-28T20:54:11.106Z,21.13
2023-02-28T20:56:37.569Z,20.75
2023-02-28T20:59:04.164Z,22.90
2023-02-28T21:01:30.688Z,20.77
2023-02-28T21:03:59.746Z,22.98
2023-02-28T21:06:30.086Z,20.88
2023-02-28T21:08:57.873Z,21.48
2023-02-28T21:11:27.305Z,23.05
2023-02-28T21:13:54.406Z,21.33
2023-02-28T21:16:25.275Z,21.77
2023-02-28T21:18:53.361Z,22.83
2023-02-28T21:21:22.602Z,17.73
2023-02-28T21:23:49.918Z,20.85
2023-02-28T21:26:19.163Z,15.52
2023-02-28T21:28:52.373Z,18.35
2023-02-28T21:31:20.248Z,22.42
2023-02-28T21:33:47.425Z,14.93
2023-02-28T21:36:17.204Z,15.27
2023-02-28T21:38:45.666Z,18.73
2023-02-28T21:41:17.524Z,17.90
2023-02-28T21:43:44.748Z,19.40
2023-02-28T21:46:13.817Z,15.60
2023-02-28T21:48:41.050Z,15.38
2023-02-28T21:51:13.240Z,16.27
2023-02-28T21:53:41.010Z,13.88
2023-02-28T21:56:12.598Z,14.52
2023-02-28T21:58:39.238Z,17.58
2023-02-28T22:01:08.018Z,16.90
2023-02-28T22:03:35.032Z,16.58
2023-02-28T22:06:01.558Z,16.40
2023-02-28T22:08:28.107Z,15.93
2023-02-28T22:10:54.455Z,17.50
2023-02-28T22:13:20.885Z,16.52
2023-02-28T22:15:47.437Z,16.52
2023-02-28T22:18:14.208Z,14.40
2023-02-28T22:20:40.523Z,17.98
2023-02-28T22:23:06.936Z,36.33
2023-02-28T22:25:37.153Z,44.08
2023-02-28T22:28:03.624Z,38.00
2023-02-28T22:30:29.982Z,40.13
2023-02-28T22:32:56.302Z,37.50
2023-02-28T22:35:22.706Z,28.88
2023-02-28T22:37:49.043Z,26.23
2023-02-28T22:40:15.588Z,26.13
2023-02-28T22:42:41.988Z,19.05
2023-02-28T22:45:08.865Z,22.05
2023-02-28T22:47:35.194Z,20.27
2023-02-28T22:50:01.591Z,20.40
2023-02-28T22:52:28.195Z,18.05
2023-02-28T22:54:54.554Z,16.23
2023-02-28T22:57:20.967Z,17.05
2023-02-28T22:59:47.748Z,17.02
2023-02-28T23:02:14.343Z,17.55
2023-02-28T23:04:40.775Z,18.10
2023-02-28T23:07:07.173Z,15.00
2023-02-28T23:09:33.781Z,16.60
2023-02-28T23:12:00.118Z,14.45
2023-02-28T23:14:26.573Z,14.73
2023-02-28T23:16:54.231Z,17.02
2023-02-28T23:19:31.484Z,15.32
2023-02-28T23:21:59.926Z,17.08
2023-02-28T23:24:29.317Z,19.30
2023-02-28T23:26:59.675Z,18.45
2023-02-28T23:29:27.829Z,16.45
2023-02-28T23:31:55.267Z,17.10
2023-02-28T23:34:26.260Z,17.42
2023-02-28T23:36:54.954Z,17.17
2023-02-28T23:39:22.402Z,20.92
2023-02-28T23:41:49.133Z,18.33
2023-02-28T23:44:18.840Z,14.73
2023-02-28T23:46:47.614Z,17.42
2023-02-28T23:49:14.971Z,14.85
2023-02-28T23:51:41.617Z,14.40
2023-02-28T23:54:08.385Z,15.73
2023-02-28T23:56:34.766Z,15.52
2023-02-28T23:59:01.214Z,21.15
